createdAt,value
2022-12-25T00:01:40.959Z,2.40
2022-12-25T00:04:10.942Z,1.80
2022-12-25T00:06:40.964Z,1.77
2022-12-25T00:09:12.304Z,3.58
2022-12-25T00:11:42.279Z,2.35
2022-12-25T00:14:12.327Z,2.17
2022-12-25T00:16:42.424Z,2.90
2022-12-25T00:19:12.461Z,2.00
2022-12-25T00:21:42.300Z,2.88
2022-12-25T00:24:13.860Z,1.23
2022-12-25T00:26:43.742Z,1.77
2022-12-25T00:29:15.949Z,2.85
2022-12-25T00:31:45.919Z,1.63
2022-12-25T00:34:15.853Z,2.08
2022-12-25T00:36:45.764Z,6.40
2022-12-25T00:39:17.182Z,4.25
2022-12-25T00:42:04.557Z,4.20
2022-12-25T00:44:34.753Z,3.03
2022-12-25T00:47:04.940Z,3.63
2022-12-25T00:50:54.672Z,1.67
2022-12-25T00:53:25.451Z,3.47
2022-12-25T00:55:56.523Z,4.15
2022-12-25T00:58:27.940Z,5.13
2022-12-25T01:00:58.129Z,7.13
2022-12-25T01:03:28.612Z,4.43
2022-12-25T01:06:02.175Z,2.28
2022-12-25T01:08:34.885Z,7.20
2022-12-25T01:11:06.304Z,5.38
2022-12-25T01:13:39.634Z,3.45
2022-12-25T01:16:11.154Z,4.18
2022-12-25T01:18:41.242Z,2.50
2022-12-25T01:21:16.465Z,3.42
2022-12-25T01:23:46.859Z,3.75
2022-12-25T01:26:18.264Z,3.88
2022-12-25T01:28:48.920Z,3.00
2022-12-25T01:31:22.011Z,2.67
2022-12-25T01:33:52.580Z,2.55
2022-12-25T01:36:27.574Z,3.58
2022-12-25T01:38:57.702Z,3.20
2022-12-25T01:41:28.540Z,2.15
2022-12-25T01:44:06.527Z,1.92
2022-12-25T01:46:37.236Z,5.35
2022-12-25T01:49:10.391Z,3.10
2022-12-25T01:51:45.468Z,5.03
2022-12-25T01:54:19.320Z,3.08
2022-12-25T01:56:50.730Z,2.60
2022-12-25T01:59:24.443Z,3.13
2022-12-25T02:01:54.557Z,2.17
2022-12-25T02:04:39.270Z,2.40
2022-12-25T02:07:15.200Z,3.05
2022-12-25T02:09:45.938Z,2.20
2022-12-25T02:12:23.259Z,3.25
2022-12-25T02:15:01.118Z,2.40
2022-12-25T02:17:42.499Z,3.35
2022-12-25T02:20:42.860Z,2.60
2022-12-25T02:24:02.793Z,3.08
2022-12-25T02:27:03.292Z,3.72
2022-12-25T02:29:44.251Z,2.90
2022-12-25T02:32:21.222Z,2.25
2022-12-25T02:34:57.639Z,3.75
2022-12-25T02:37:33.562Z,2.92
2022-12-25T02:40:10.805Z,2.97
2022-12-25T02:43:05.362Z,1.98
2022-12-25T02:46:03.016Z,2.80
2022-12-25T02:48:54.921Z,3.15
2022-12-25T02:51:46.606Z,3.40
2022-12-25T02:54:40.441Z,2.20
2022-12-25T02:57:31.291Z,6.10
2022-12-25T03:00:20.308Z,4.20
2022-12-25T03:03:10.377Z,7.60
2022-12-25T03:05:59.527Z,6.60
2022-12-25T03:08:36.172Z,6.00
2022-12-25T03:11:26.385Z,4.00
2022-12-25T03:14:20.280Z,5.28
2022-12-25T03:16:53.919Z,4.05
2022-12-25T03:19:46.888Z,3.45
2022-12-25T03:22:38.406Z,3.92
2022-12-25T03:25:27.018Z,5.38
2022-12-25T03:27:58.537Z,6.15
2022-12-25T03:31:11.455Z,7.03
2022-12-25T03:34:34.725Z,7.23
2022-12-25T03:37:45.100Z,4.80
2022-12-25T03:40:48.332Z,6.15
2022-12-25T03:43:46.901Z,8.75
2022-12-25T03:46:37.700Z,11.57
2022-12-25T03:52:11.286Z,7.63
2022-12-25T03:55:03.348Z,5.35
2022-12-25T03:57:54.361Z,6.45
2022-12-25T04:00:43.855Z,6.78
2022-12-25T04:03:31.162Z,17.15
2022-12-25T04:06:18.084Z,22.90
2022-12-25T04:09:06.844Z,19.85
2022-12-25T04:11:58.790Z,39.63
2022-12-25T04:14:49.364Z,38.92
2022-12-25T04:17:36.607Z,32.47
2022-12-25T04:20:25.264Z,17.70
2022-12-25T04:23:12.222Z,9.48
2022-12-25T04:26:00.999Z,8.98
2022-12-25T04:28:48.357Z,19.73
2022-12-25T04:31:35.327Z,24.95
2022-12-25T04:34:22.285Z,21.92
2022-12-25T04:36:52.182Z,19.08
2022-12-25T04:39:22.106Z,20.55
2022-12-25T04:41:53.492Z,20.10
2022-12-25T04:44:23.341Z,15.93
2022-12-25T04:46:53.474Z,22.08
2022-12-25T04:49:23.678Z,39.33
2022-12-25T04:51:53.681Z,29.77
2022-12-25T04:54:23.709Z,26.27
2022-12-25T04:56:55.143Z,32.88
2022-12-25T04:59:25.226Z,27.90
2022-12-25T05:01:55.308Z,32.13
2022-12-25T05:04:25.336Z,30.50
2022-12-25T05:06:55.295Z,18.17
2022-12-25T05:09:26.674Z,23.73
2022-12-25T05:11:58.023Z,24.63
2022-12-25T05:14:27.914Z,13.32
2022-12-25T05:16:57.683Z,17.38
2022-12-25T05:19:27.866Z,33.58
2022-12-25T05:21:58.131Z,192.82
2022-12-25T05:24:29.865Z,70.68
2022-12-25T05:27:01.311Z,32.25
2022-12-25T05:29:31.363Z,29.73
2022-12-25T05:32:01.356Z,60.67
2022-12-25T05:34:31.551Z,40.53
2022-12-25T05:37:01.505Z,32.25
2022-12-25T05:39:31.504Z,39.00
2022-12-25T05:42:03.002Z,80.53
2022-12-25T05:44:32.926Z,104.63
2022-12-25T05:47:02.888Z,39.30
2022-12-25T05:49:32.796Z,37.40
2022-12-25T05:52:02.783Z,44.38
2022-12-25T05:54:32.681Z,98.85
2022-12-25T05:57:04.708Z,38.90
2022-12-25T05:59:36.093Z,20.70
2022-12-25T06:02:06.406Z,27.58
2022-12-25T06:04:36.430Z,13.95
2022-12-25T06:07:06.308Z,12.55
2022-12-25T06:09:36.261Z,12.93
2022-12-25T06:12:07.822Z,35.80
2022-12-25T06:14:38.248Z,26.92
2022-12-25T06:17:08.145Z,5.80
2022-12-25T06:19:38.045Z,8.30
2022-12-25T06:22:08.044Z,12.07
2022-12-25T06:24:38.123Z,9.30
2022-12-25T06:27:09.595Z,11.95
2022-12-25T06:29:39.558Z,18.35
2022-12-25T06:32:09.424Z,13.30
2022-12-25T06:34:39.515Z,10.07
2022-12-25T06:37:09.704Z,21.58
2022-12-25T06:39:39.693Z,16.17
2022-12-25T06:42:11.168Z,10.52
2022-12-25T06:44:41.642Z,10.70
2022-12-25T06:47:11.703Z,8.07
2022-12-25T06:51:51.219Z,14.55
2022-12-25T06:54:21.201Z,21.15
2022-12-25T06:56:51.555Z,21.25
2022-12-25T06:59:21.599Z,21.95
2022-12-25T07:01:55.633Z,10.95
2022-12-25T07:04:32.360Z,12.63
2022-12-25T07:07:08.686Z,8.73
2022-12-25T07:09:40.250Z,5.72
2022-12-25T07:12:17.504Z,5.53
2022-12-25T07:14:50.405Z,5.28
2022-12-25T07:17:21.638Z,5.18
2022-12-25T07:19:52.261Z,7.28
2022-12-25T07:22:23.672Z,8.07
2022-12-25T07:24:53.531Z,5.53
2022-12-25T07:27:23.461Z,4.25
2022-12-25T07:29:53.341Z,3.42
2022-12-25T07:32:23.245Z,6.20
2022-12-25T07:34:53.183Z,5.82
2022-12-25T07:37:24.782Z,5.72
2022-12-25T07:39:54.783Z,7.93
2022-12-25T07:42:25.406Z,5.32
2022-12-25T07:44:55.787Z,3.80
2022-12-25T07:47:25.662Z,4.78
2022-12-25T07:49:55.644Z,6.60
2022-12-25T07:52:27.084Z,3.55
2022-12-25T07:54:56.983Z,2.10
2022-12-25T07:57:27.066Z,3.47
2022-12-25T07:59:56.906Z,4.13
2022-12-25T08:02:29.294Z,4.20
2022-12-25T08:05:00.024Z,1.88
2022-12-25T08:07:31.405Z,4.22
2022-12-25T08:10:01.541Z,3.90
2022-12-25T08:12:31.531Z,5.18
2022-12-25T08:15:01.547Z,3.65
2022-12-25T08:17:31.501Z,4.43
2022-12-25T08:20:01.503Z,4.22
2022-12-25T08:22:32.847Z,3.17
2022-12-25T08:25:02.740Z,3.33
2022-12-25T08:27:32.604Z,4.53
2022-12-25T08:30:02.657Z,4.45
2022-12-25T08:32:35.748Z,3.53
2022-12-25T08:35:06.200Z,3.63
2022-12-25T08:37:37.702Z,3.50
2022-12-25T08:40:09.792Z,3.72
2022-12-25T08:42:39.809Z,4.43
2022-12-25T08:45:11.846Z,2.58
2022-12-25T08:47:41.885Z,1.77
2022-12-25T08:50:12.504Z,2.85
2022-12-25T08:52:44.077Z,5.07
2022-12-25T08:55:13.962Z,2.33
2022-12-25T08:57:44.244Z,3.65
2022-12-25T09:00:15.609Z,2.08
2022-12-25T09:02:45.648Z,2.88
2022-12-25T09:05:15.684Z,3.83
2022-12-25T09:07:47.034Z,2.58
2022-12-25T09:10:16.985Z,4.03
2022-12-25T09:12:46.964Z,3.00
2022-12-25T09:15:17.084Z,4.78
2022-12-25T09:17:46.943Z,1.52
2022-12-25T09:20:16.915Z,1.92
2022-12-25T09:22:48.423Z,2.17
2022-12-25T09:25:18.754Z,2.33
2022-12-25T09:27:48.722Z,2.00
2022-12-25T09:30:18.829Z,2.22
2022-12-25T09:32:48.671Z,1.15
2022-12-25T09:35:19.423Z,2.33
2022-12-25T09:37:50.800Z,2.58
2022-12-25T09:40:23.665Z,4.38
2022-12-25T09:42:57.591Z,1.33
2022-12-25T09:45:33.219Z,1.63
2022-12-25T09:48:03.182Z,2.33
2022-12-25T09:51:57.094Z,4.47
2022-12-25T09:54:41.702Z,2.08
2022-12-25T09:57:15.104Z,3.38
2022-12-25T09:59:47.882Z,2.15
2022-12-25T10:05:55.045Z,2.08
2022-12-25T10:08:56.668Z,3.97
2022-12-25T10:11:45.064Z,3.78
2022-12-25T10:14:27.904Z,2.72
2022-12-25T10:17:17.546Z,4.03
2022-12-25T10:19:55.111Z,2.35
2022-12-25T10:22:33.943Z,2.30
2022-12-25T10:25:07.810Z,1.60
2022-12-25T10:27:43.133Z,4.43
2022-12-25T10:30:19.074Z,3.20
2022-12-25T10:32:50.314Z,1.85
2022-12-25T10:35:24.004Z,1.40
2022-12-25T10:38:01.449Z,3.20
2022-12-25T10:40:40.984Z,2.15
2022-12-25T10:43:15.203Z,3.45
2022-12-25T10:45:50.095Z,4.32
2022-12-25T10:48:26.746Z,4.10
2022-12-25T10:50:56.956Z,3.42
2022-12-25T10:53:28.855Z,2.38
2022-12-25T10:56:02.922Z,1.43
2022-12-25T10:58:33.989Z,1.42
2022-12-25T11:01:08.890Z,3.13
2022-12-25T11:03:42.541Z,2.55
2022-12-25T11:06:26.225Z,1.52
2022-12-25T11:09:00.309Z,1.45
2022-12-25T11:11:32.899Z,1.63
2022-12-25T11:14:05.214Z,1.88
2022-12-25T11:16:38.835Z,2.28
2022-12-25T11:19:31.126Z,3.45
2022-12-25T11:22:04.240Z,1.80
2022-12-25T11:24:36.574Z,2.90
2022-12-25T11:27:08.804Z,3.17
2022-12-25T11:29:45.491Z,2.20
2022-12-25T11:32:22.642Z,2.67
2022-12-25T11:34:53.781Z,2.67
2022-12-25T11:37:33.082Z,2.28
2022-12-25T11:40:03.479Z,3.03
2022-12-25T11:42:40.330Z,3.75
2022-12-25T11:45:17.452Z,2.33
2022-12-25T11:47:53.471Z,2.88
2022-12-25T11:50:31.103Z,2.50
2022-12-25T11:53:05.630Z,2.78
2022-12-25T11:55:42.163Z,4.65
2022-12-25T11:58:22.617Z,3.28
2022-12-25T12:00:58.001Z,6.00
2022-12-25T12:03:33.110Z,3.72
2022-12-25T12:06:08.863Z,4.15
2022-12-25T12:08:39.390Z,2.53
2022-12-25T12:11:20.952Z,0.70
2022-12-25T12:14:13.366Z,3.08
2022-12-25T12:16:43.652Z,1.50
2022-12-25T12:19:20.701Z,2.22
2022-12-25T12:21:52.424Z,1.50
2022-12-25T12:24:25.634Z,0.63
2022-12-25T12:27:08.043Z,1.40
2022-12-25T12:29:45.303Z,1.65
2022-12-25T12:32:39.833Z,1.63
2022-12-25T12:35:21.124Z,2.90
2022-12-25T12:37:55.230Z,2.33
2022-12-25T12:40:34.826Z,2.03
2022-12-25T12:43:05.562Z,3.13
2022-12-25T12:45:39.466Z,4.43
2022-12-25T12:51:51.616Z,2.50
2022-12-25T12:54:25.970Z,3.60
2022-12-25T12:57:01.680Z,2.30
2022-12-25T12:59:41.442Z,2.47
2022-12-25T13:03:00.296Z,3.05
2022-12-25T13:05:41.029Z,2.58
2022-12-25T13:08:34.709Z,2.90
2022-12-25T13:11:18.361Z,3.55
2022-12-25T13:13:50.356Z,3.15
2022-12-25T13:16:29.517Z,1.77
2022-12-25T13:19:00.267Z,1.88
2022-12-25T13:21:32.641Z,2.15
2022-12-25T13:24:09.234Z,0.80
2022-12-25T13:26:40.962Z,2.53
2022-12-25T13:29:25.823Z,1.67
2022-12-25T13:31:56.482Z,4.32
2022-12-25T13:34:32.963Z,7.20
2022-12-25T13:37:08.270Z,3.88
2022-12-25T13:39:48.653Z,5.65
2022-12-25T13:42:21.164Z,2.70
2022-12-25T13:44:55.389Z,5.85
2022-12-25T13:47:31.868Z,4.97
2022-12-25T13:50:14.801Z,2.95
2022-12-25T13:55:19.083Z,3.55
2022-12-25T13:57:54.706Z,6.05
2022-12-25T14:00:31.432Z,4.32
2022-12-25T14:03:02.353Z,6.32
2022-12-25T14:05:42.079Z,8.18
2022-12-25T14:08:23.124Z,8.45
2022-12-25T14:10:56.672Z,2.60
2022-12-25T14:13:29.742Z,4.68
2022-12-25T14:16:00.594Z,5.97
2022-12-25T14:18:31.336Z,9.57
2022-12-25T14:21:04.634Z,7.72
2022-12-25T14:23:45.068Z,9.02
2022-12-25T14:26:21.762Z,5.65
2022-12-25T14:28:53.636Z,7.68
2022-12-25T14:31:26.557Z,2.87
2022-12-25T14:33:57.523Z,8.65
2022-12-25T14:36:28.074Z,8.60
2022-12-25T14:39:02.834Z,6.38
2022-12-25T14:41:39.867Z,11.82
2022-12-25T14:44:33.920Z,5.03
2022-12-25T14:47:16.162Z,5.28
2022-12-25T14:49:46.759Z,4.13
2022-12-25T14:52:23.711Z,10.75
2022-12-25T14:54:58.440Z,9.93
2022-12-25T14:57:34.752Z,6.63
2022-12-25T15:00:22.088Z,7.85
2022-12-25T15:02:56.428Z,8.02
2022-12-25T15:05:33.879Z,6.13
2022-12-25T15:08:22.298Z,10.48
2022-12-25T15:11:02.132Z,9.63
2022-12-25T15:13:34.722Z,6.15
2022-12-25T15:16:12.662Z,5.03
2022-12-25T15:18:46.984Z,6.95
2022-12-25T15:21:19.535Z,7.18
2022-12-25T15:23:49.751Z,5.63
2022-12-25T15:26:19.662Z,5.32
2022-12-25T15:28:51.310Z,10.95
2022-12-25T15:31:25.442Z,5.82
2022-12-25T15:33:56.832Z,10.95
2022-12-25T15:36:27.921Z,9.57
2022-12-25T15:38:58.124Z,12.98
2022-12-25T15:41:49.044Z,6.80
2022-12-25T15:44:20.467Z,7.57
2022-12-25T15:46:50.728Z,6.22
2022-12-25T15:51:51.354Z,5.40
2022-12-25T15:54:21.585Z,7.95
2022-12-25T15:56:54.104Z,8.55
2022-12-25T15:59:25.691Z,6.60
2022-12-25T16:01:57.917Z,5.88
2022-12-25T16:04:31.538Z,5.90
2022-12-25T16:07:03.212Z,17.63
2022-12-25T16:09:32.985Z,7.82
2022-12-25T16:12:02.760Z,4.05
2022-12-25T16:14:32.692Z,7.63
2022-12-25T16:17:02.638Z,2.08
2022-12-25T16:19:32.819Z,4.25
2022-12-25T16:22:04.243Z,2.70
2022-12-25T16:24:34.084Z,2.97
2022-12-25T16:27:03.891Z,4.53
2022-12-25T16:29:34.029Z,9.23
2022-12-25T16:32:04.231Z,4.97
2022-12-25T16:34:34.135Z,6.80
2022-12-25T16:37:08.723Z,7.78
2022-12-25T16:39:38.629Z,12.80
2022-12-25T16:42:09.462Z,14.45
2022-12-25T16:44:39.780Z,39.42
2022-12-25T16:47:09.832Z,9.23
2022-12-25T16:49:39.938Z,10.65
2022-12-25T16:52:11.365Z,2.42
2022-12-25T16:54:41.362Z,3.17
2022-12-25T16:57:11.242Z,2.63
2022-12-25T16:59:41.935Z,2.35
2022-12-25T17:02:17.496Z,3.33
2022-12-25T17:04:48.850Z,5.07
2022-12-25T17:07:20.638Z,6.00
2022-12-25T17:09:51.552Z,7.47
2022-12-25T17:12:21.382Z,13.40
2022-12-25T17:14:51.383Z,28.27
2022-12-25T17:17:21.241Z,33.72
2022-12-25T17:19:51.245Z,61.70
2022-12-25T17:22:22.870Z,50.47
2022-12-25T17:24:52.764Z,29.15
2022-12-25T17:27:22.611Z,24.08
2022-12-25T17:29:52.605Z,37.75
2022-12-25T17:32:22.598Z,21.90
2022-12-25T17:34:52.492Z,27.35
2022-12-25T17:37:25.290Z,34.95
2022-12-25T17:42:24.542Z,27.48
2022-12-25T17:44:54.420Z,38.60
2022-12-25T17:47:24.521Z,32.50
2022-12-25T17:49:54.546Z,28.30
2022-12-25T17:52:25.846Z,23.23
2022-12-25T17:54:57.344Z,6.35
2022-12-25T17:57:27.702Z,9.88
2022-12-25T17:59:57.626Z,8.57
2022-12-25T18:02:28.901Z,8.05
2022-12-25T18:04:59.622Z,9.23
2022-12-25T18:07:31.086Z,6.68
2022-12-25T18:10:00.972Z,7.18
2022-12-25T18:12:30.734Z,6.82
2022-12-25T18:15:00.608Z,5.50
2022-12-25T18:17:30.703Z,5.13
2022-12-25T18:20:00.586Z,6.90
2022-12-25T18:22:31.993Z,6.85
2022-12-25T18:25:01.857Z,5.82
2022-12-25T18:27:31.739Z,8.50
2022-12-25T18:30:01.641Z,5.60
2022-12-25T18:32:31.642Z,6.20
2022-12-25T18:35:01.509Z,7.88
2022-12-25T18:37:39.428Z,9.93
2022-12-25T18:40:11.762Z,8.85
2022-12-25T18:42:41.671Z,15.82
2022-12-25T18:45:14.816Z,12.90
2022-12-25T18:47:45.045Z,9.45
2022-12-25T18:51:51.903Z,10.73
2022-12-25T18:54:21.773Z,8.13
2022-12-25T18:56:53.563Z,6.63
2022-12-25T18:59:23.747Z,12.90
2022-12-25T19:01:53.768Z,8.32
2022-12-25T19:04:23.918Z,6.88
2022-12-25T19:06:55.445Z,8.07
2022-12-25T19:09:25.405Z,22.35
2022-12-25T19:11:57.404Z,17.48
2022-12-25T19:14:28.627Z,16.93
2022-12-25T19:16:59.330Z,30.75
2022-12-25T19:19:29.363Z,30.48
2022-12-25T19:22:01.083Z,18.30
2022-12-25T19:24:31.024Z,13.70
2022-12-25T19:27:01.013Z,27.33
2022-12-25T19:29:30.984Z,37.83
2022-12-25T19:32:01.221Z,40.85
2022-12-25T19:34:31.162Z,22.90
2022-12-25T19:37:02.635Z,23.13
2022-12-25T19:39:32.467Z,28.45
2022-12-25T19:42:02.305Z,30.92
2022-12-25T19:44:32.283Z,20.92
2022-12-25T19:47:02.048Z,15.52
2022-12-25T19:49:31.923Z,14.75
2022-12-25T19:52:03.471Z,40.55
2022-12-25T19:54:33.546Z,23.02
2022-12-25T19:57:03.545Z,21.25
2022-12-25T19:59:33.501Z,18.75
2022-12-25T20:02:03.461Z,26.92
2022-12-25T20:04:33.604Z,15.07
2022-12-25T20:07:05.004Z,16.52
2022-12-25T20:09:35.003Z,17.38
2022-12-25T20:12:05.129Z,18.40
2022-12-25T20:14:35.071Z,13.57
2022-12-25T20:17:04.956Z,8.95
2022-12-25T20:19:36.050Z,22.90
2022-12-25T20:22:07.443Z,29.23
2022-12-25T20:24:37.506Z,57.75
2022-12-25T20:27:07.442Z,60.30
2022-12-25T20:29:37.393Z,66.82
2022-12-25T20:32:07.994Z,72.93
2022-12-25T20:34:38.334Z,70.13
2022-12-25T20:37:09.711Z,64.13
2022-12-25T20:39:40.165Z,34.28
2022-12-25T20:42:10.562Z,31.48
2022-12-25T20:44:40.584Z,21.20
2022-12-25T20:47:10.425Z,15.18
2022-12-25T20:49:40.315Z,16.95
2022-12-25T20:52:12.409Z,15.23
2022-12-25T20:54:42.684Z,21.87
2022-12-25T20:57:12.642Z,15.25
2022-12-25T20:59:44.779Z,10.95
2022-12-25T21:02:34.252Z,13.53
2022-12-25T21:05:04.931Z,7.82
2022-12-25T21:07:36.722Z,13.07
2022-12-25T21:10:08.020Z,13.10
2022-12-25T21:12:38.042Z,10.07
2022-12-25T21:15:15.111Z,13.00
2022-12-25T21:17:45.771Z,10.07
2022-12-25T21:20:15.782Z,9.27
2022-12-25T21:22:47.208Z,6.32
2022-12-25T21:25:17.312Z,12.20
2022-12-25T21:27:47.112Z,22.10
2022-12-25T21:30:17.270Z,7.30
2022-12-25T21:33:04.113Z,8.38
2022-12-25T21:35:35.039Z,9.73
2022-12-25T21:38:06.970Z,5.35
2022-12-25T21:40:38.471Z,14.17
2022-12-25T21:43:09.345Z,13.43
2022-12-25T21:45:39.157Z,15.23
2022-12-25T21:48:09.339Z,9.02
2022-12-25T21:52:08.907Z,24.70
2022-12-25T21:54:38.889Z,22.92
2022-12-25T21:57:09.167Z,25.42
2022-12-25T21:59:39.223Z,15.25
2022-12-25T22:02:11.799Z,14.77
2022-12-25T22:04:42.636Z,22.17
2022-12-25T22:07:18.316Z,20.98
2022-12-25T22:09:49.539Z,15.85
2022-12-25T22:12:39.082Z,16.85
2022-12-25T22:15:11.887Z,16.40
2022-12-25T22:20:35.016Z,9.80
2022-12-25T22:23:07.470Z,11.75
2022-12-25T22:25:37.330Z,9.43
2022-12-25T22:28:08.876Z,10.88
2022-12-25T22:30:38.822Z,4.40
2022-12-25T22:33:08.816Z,5.50
2022-12-25T22:35:38.813Z,5.38
2022-12-25T22:38:10.488Z,5.25
2022-12-25T22:40:40.710Z,5.05
2022-12-25T22:43:10.860Z,6.40
2022-12-25T22:45:40.882Z,6.50
2022-12-25T22:48:10.759Z,6.18
2022-12-25T22:50:40.923Z,4.25
2022-12-25T22:53:12.513Z,5.10
2022-12-25T22:55:47.062Z,4.25
2022-12-25T22:58:17.405Z,4.68
2022-12-25T23:00:47.623Z,4.05
2022-12-25T23:03:17.581Z,5.50
2022-12-25T23:05:47.631Z,6.00
2022-12-25T23:08:19.258Z,4.45
2022-12-25T23:10:49.071Z,7.80
2022-12-25T23:13:36.743Z,5.85
2022-12-25T23:16:07.602Z,5.00
2022-12-25T23:18:54.582Z,5.57
2022-12-25T23:21:41.981Z,7.07
2022-12-25T23:24:31.403Z,5.13
2022-12-25T23:27:01.536Z,5.55
2022-12-25T23:29:36.283Z,5.43
2022-12-25T23:32:08.707Z,3.42
2022-12-25T23:34:40.833Z,9.77
2022-12-25T23:37:11.740Z,4.55
2022-12-25T23:39:43.124Z,5.82
2022-12-25T23:42:13.055Z,4.78
2022-12-25T23:44:43.022Z,5.03
2022-12-25T23:47:13.307Z,3.72
2022-12-25T23:49:43.250Z,5.97
2022-12-25T23:52:14.371Z,6.95
2022-12-25T23:54:45.641Z,4.35
2022-12-25T23:57:15.632Z,5.80
2022-12-25T23:59:45.563Z,4.93
